createdAt,value
2022-08-03T00:00:25.796Z,70.03
2022-08-03T00:02:52.609Z,70.04
2022-08-03T00:05:19.365Z,70.02
2022-08-03T00:07:46.071Z,70.08
2022-08-03T00:10:15.222Z,70.32
2022-08-03T00:12:41.926Z,70.07
2022-08-03T00:15:11.476Z,70.02
2022-08-03T00:17:53.418Z,70.00
2022-08-03T00:20:21.827Z,69.93
2022-08-03T00:22:49.111Z,69.64
2022-08-03T00:25:15.821Z,69.67
2022-08-03T00:27:42.515Z,69.44
2022-08-03T00:30:09.544Z,69.50
2022-08-03T00:32:36.152Z,69.36
2022-08-03T00:35:09.222Z,69.50
2022-08-03T00:37:40.606Z,69.65
2022-08-03T00:40:10.869Z,69.06
2022-08-03T00:42:56.810Z,69.23
2022-08-03T00:45:32.443Z,69.23
2022-08-03T00:47:59.954Z,68.97
2022-08-03T00:50:29.061Z,68.96
2022-08-03T00:52:58.094Z,68.89
2022-08-03T00:55:25.427Z,68.97
2022-08-03T00:57:53.975Z,68.70
2022-08-03T01:00:23.238Z,68.74
2022-08-03T01:02:50.293Z,68.63
2022-08-03T01:05:17.413Z,68.31
2022-08-03T01:07:47.788Z,68.20
2022-08-03T01:10:23.514Z,68.13
2022-08-03T01:13:03.092Z,67.98
2022-08-03T01:15:43.632Z,67.69
2022-08-03T01:18:18.368Z,67.74
2022-08-03T01:20:49.401Z,67.77
2022-08-03T01:23:47.528Z,67.81
2022-08-03T01:26:54.729Z,67.70
2022-08-03T01:29:46.550Z,67.33
2022-08-03T01:32:59.007Z,67.04
2022-08-03T01:35:11.427Z,66.64
2022-08-03T01:37:51.573Z,66.56
2022-08-03T01:40:20.702Z,66.47
2022-08-03T01:42:48.313Z,66.67
2022-08-03T01:45:18.652Z,66.58
2022-08-03T01:47:47.253Z,66.47
2022-08-03T01:50:15.012Z,66.38
2022-08-03T01:52:46.109Z,66.05
2022-08-03T01:55:14.069Z,65.89
2022-08-03T01:58:05.635Z,65.81
2022-08-03T02:00:32.743Z,65.67
2022-08-03T02:02:59.538Z,65.52
2022-08-03T02:05:27.846Z,65.65
2022-08-03T02:07:55.545Z,65.56
2022-08-03T02:10:34.546Z,65.45
2022-08-03T02:13:03.253Z,65.58
2022-08-03T02:15:32.344Z,65.86
2022-08-03T02:18:00.306Z,65.87
2022-08-03T02:20:28.632Z,65.57
2022-08-03T02:22:55.700Z,65.46
2022-08-03T02:25:22.384Z,65.23
2022-08-03T02:28:00.311Z,64.97
2022-08-03T02:30:33.510Z,65.03
2022-08-03T02:33:04.053Z,64.87
2022-08-03T02:35:32.766Z,65.16
2022-08-03T02:38:05.064Z,64.89
2022-08-03T02:40:33.234Z,65.28
2022-08-03T02:43:05.307Z,64.82
2022-08-03T02:45:35.917Z,64.60
2022-08-03T02:48:05.280Z,64.65
2022-08-03T02:50:33.954Z,64.98
2022-08-03T02:53:03.001Z,64.94
2022-08-03T02:55:31.674Z,64.57
2022-08-03T02:58:01.610Z,64.68
2022-08-03T03:00:38.840Z,64.71
2022-08-03T03:03:06.545Z,65.09
2022-08-03T03:05:54.803Z,65.09
2022-08-03T03:08:25.992Z,64.98
2022-08-03T03:10:55.595Z,64.93
2022-08-03T03:13:23.359Z,65.09
2022-08-03T03:15:52.108Z,64.89
2022-08-03T03:18:22.755Z,65.07
2022-08-03T03:20:51.791Z,65.34
2022-08-03T03:23:20.157Z,65.26
2022-08-03T03:25:46.847Z,65.21
2022-08-03T03:28:14.436Z,65.06
2022-08-03T03:30:41.216Z,65.23
2022-08-03T03:33:08.166Z,65.04
2022-08-03T03:35:37.964Z,64.85
2022-08-03T03:38:07.060Z,64.81
2022-08-03T03:40:35.926Z,65.01
2022-08-03T03:43:03.402Z,65.20
2022-08-03T03:45:31.285Z,64.71
2022-08-03T03:48:02.536Z,65.01
2022-08-03T03:50:30.929Z,64.71
2022-08-03T03:52:57.997Z,64.47
2022-08-03T03:55:24.835Z,64.68
2022-08-03T03:57:51.517Z,64.51
2022-08-03T04:00:18.837Z,64.74
2022-08-03T04:02:46.313Z,64.81
2022-08-03T04:05:31.900Z,65.01
2022-08-03T04:08:25.709Z,65.09
2022-08-03T04:11:21.034Z,65.17
2022-08-03T04:14:01.990Z,65.29
2022-08-03T04:16:32.568Z,65.58
2022-08-03T04:19:04.865Z,65.35
2022-08-03T04:21:35.591Z,65.38
2022-08-03T04:24:09.041Z,65.28
2022-08-03T04:26:39.495Z,65.26
2022-08-03T04:29:09.427Z,65.05
2022-08-03T04:31:36.856Z,64.86
2022-08-03T04:34:04.303Z,64.70
2022-08-03T04:36:37.215Z,64.89
2022-08-03T04:39:07.300Z,64.70
2022-08-03T04:42:07.831Z,64.90
2022-08-03T04:44:28.400Z,64.39
2022-08-03T04:46:57.008Z,64.40
2022-08-03T04:49:24.175Z,64.34
2022-08-03T04:51:50.921Z,64.40
2022-08-03T04:54:17.630Z,64.22
2022-08-03T04:56:46.889Z,64.13
2022-08-03T04:59:13.864Z,63.72
2022-08-03T05:01:42.070Z,63.70
2022-08-03T05:04:08.944Z,63.01
2022-08-03T05:06:35.756Z,62.75
2022-08-03T05:09:03.140Z,62.13
2022-08-03T05:11:30.857Z,61.64
2022-08-03T05:13:59.973Z,61.30
2022-08-03T05:16:28.583Z,61.29
2022-08-03T05:18:55.206Z,60.87
2022-08-03T05:21:21.931Z,60.46
2022-08-03T05:23:48.540Z,60.47
2022-08-03T05:26:15.206Z,60.32
2022-08-03T05:28:50.746Z,60.09
2022-08-03T05:31:17.841Z,60.46
2022-08-03T05:33:44.811Z,59.94
2022-08-03T05:36:11.451Z,60.38
2022-08-03T05:38:38.217Z,60.13
2022-08-03T05:41:21.324Z,60.11
2022-08-03T05:43:53.830Z,59.51
2022-08-03T05:46:23.812Z,59.53
2022-08-03T05:48:50.586Z,59.87
2022-08-03T05:51:17.634Z,59.57
2022-08-03T05:53:44.948Z,59.50
2022-08-03T05:56:13.651Z,60.07
2022-08-03T05:58:46.038Z,59.42
2022-08-03T06:01:12.981Z,59.21
2022-08-03T06:03:39.796Z,59.42
2022-08-03T06:06:06.482Z,59.32
2022-08-03T06:08:33.179Z,59.00
2022-08-03T06:11:00.126Z,58.33
2022-08-03T06:13:29.825Z,58.60
2022-08-03T06:15:56.823Z,57.68
2022-08-03T06:18:24.656Z,57.02
2022-08-03T06:20:52.283Z,57.01
2022-08-03T06:23:21.921Z,56.56
2022-08-03T06:25:48.857Z,56.58
2022-08-03T06:28:51.825Z,55.47
2022-08-03T06:31:06.525Z,55.29
2022-08-03T06:34:22.898Z,54.67
2022-08-03T06:36:23.110Z,52.71
2022-08-03T06:38:49.780Z,51.75
2022-08-03T06:41:16.740Z,50.12
2022-08-03T06:44:03.097Z,50.23
2022-08-03T06:46:30.214Z,48.81
2022-08-03T06:48:57.000Z,48.89
2022-08-03T06:52:05.451Z,47.83
2022-08-03T06:54:12.295Z,47.38
2022-08-03T06:56:38.923Z,47.42
2022-08-03T06:59:05.609Z,46.48
2022-08-03T07:01:32.337Z,45.97
2022-08-03T07:04:00.547Z,45.35
2022-08-03T07:06:27.262Z,44.20
2022-08-03T07:08:58.986Z,44.00
2022-08-03T07:11:28.639Z,44.46
2022-08-03T07:13:55.258Z,43.90
2022-08-03T07:16:22.273Z,43.56
2022-08-03T07:18:48.986Z,42.92
2022-08-03T07:21:17.142Z,43.16
2022-08-03T07:23:43.894Z,42.85
2022-08-03T07:26:10.579Z,42.53
2022-08-03T07:28:37.696Z,42.67
2022-08-03T07:31:04.405Z,42.54
2022-08-03T07:33:31.067Z,43.76
2022-08-03T07:35:57.842Z,42.86
2022-08-03T07:38:24.648Z,44.09
2022-08-03T07:40:54.447Z,43.42
2022-08-03T07:43:21.352Z,43.14
2022-08-03T07:45:48.056Z,42.54
2022-08-03T07:48:14.671Z,42.23
2022-08-03T07:50:41.441Z,41.76
2022-08-03T07:53:08.763Z,42.61
2022-08-03T07:55:46.026Z,41.59
2022-08-03T07:58:19.176Z,41.66
2022-08-03T08:00:50.928Z,43.28
2022-08-03T08:03:17.721Z,42.92
2022-08-03T08:05:47.637Z,42.94
2022-08-03T08:08:14.537Z,43.26
2022-08-03T08:10:42.593Z,42.25
2022-08-03T08:13:27.230Z,42.74
2022-08-03T08:15:54.004Z,43.28
2022-08-03T08:18:20.744Z,42.41
2022-08-03T08:20:47.829Z,42.17
2022-08-03T08:23:42.227Z,42.15
2022-08-03T08:26:01.515Z,42.71
2022-08-03T08:28:33.457Z,42.05
2022-08-03T08:31:01.390Z,41.61
2022-08-03T08:33:42.217Z,41.37
2022-08-03T08:36:15.585Z,41.66
2022-08-03T08:38:46.160Z,41.91
2022-08-03T08:41:14.351Z,42.20
2022-08-03T08:43:42.185Z,42.60
2022-08-03T08:46:23.463Z,42.83
2022-08-03T08:48:52.078Z,42.86
2022-08-03T08:51:20.693Z,43.83
2022-08-03T08:53:51.971Z,44.32
2022-08-03T08:56:20.457Z,43.72
2022-08-03T08:59:00.157Z,45.25
2022-08-03T09:01:27.983Z,45.14
2022-08-03T09:03:55.208Z,44.98
2022-08-03T09:06:23.045Z,44.49
2022-08-03T09:08:49.721Z,44.22
2022-08-03T09:11:16.448Z,45.79
2022-08-03T09:13:43.094Z,45.63
2022-08-03T09:16:21.373Z,45.29
2022-08-03T09:18:53.265Z,44.66
2022-08-03T09:21:33.894Z,45.96
2022-08-03T09:24:04.756Z,45.15
2022-08-03T09:26:34.896Z,44.19
2022-08-03T09:29:08.134Z,44.57
2022-08-03T09:31:37.724Z,44.84
2022-08-03T09:34:06.861Z,44.38
2022-08-03T09:36:41.703Z,44.47
2022-08-03T09:39:11.464Z,44.24
2022-08-03T09:41:43.481Z,44.95
2022-08-03T09:44:24.354Z,45.33
2022-08-03T09:46:56.751Z,45.80
2022-08-03T09:49:25.108Z,45.73
2022-08-03T09:52:32.692Z,45.04
2022-08-03T09:54:40.078Z,44.80
2022-08-03T09:57:06.865Z,46.10
2022-08-03T09:59:34.220Z,45.38
2022-08-03T10:02:02.032Z,44.35
2022-08-03T10:04:29.161Z,44.99
2022-08-03T10:07:10.835Z,44.61
2022-08-03T10:09:38.034Z,45.11
2022-08-03T10:12:12.738Z,44.77
2022-08-03T10:14:41.936Z,45.44
2022-08-03T10:17:09.755Z,44.48
2022-08-03T10:19:36.659Z,45.01
2022-08-03T10:22:20.301Z,45.67
2022-08-03T10:24:59.607Z,45.57
2022-08-03T10:27:31.670Z,44.39
2022-08-03T10:30:01.528Z,46.08
2022-08-03T10:32:34.094Z,45.38
2022-08-03T10:35:19.872Z,45.83
2022-08-03T10:38:00.890Z,45.76
2022-08-03T10:40:49.541Z,46.11
2022-08-03T10:43:25.800Z,45.62
2022-08-03T10:45:56.385Z,45.97
2022-08-03T10:48:25.373Z,46.38
2022-08-03T10:51:00.633Z,45.49
2022-08-03T10:53:55.001Z,44.96
2022-08-03T10:56:53.460Z,45.48
2022-08-03T10:59:59.492Z,44.84
2022-08-03T11:03:01.789Z,44.14
2022-08-03T11:05:30.239Z,43.96
2022-08-03T11:08:30.263Z,43.91
2022-08-03T11:11:19.582Z,44.51
2022-08-03T11:14:15.468Z,43.83
2022-08-03T11:16:48.180Z,43.23
2022-08-03T11:19:17.265Z,42.29
2022-08-03T11:21:52.724Z,42.28
2022-08-03T11:24:39.094Z,42.72
2022-08-03T11:27:19.338Z,43.11
2022-08-03T11:30:10.634Z,43.46
2022-08-03T11:32:40.502Z,43.42
2022-08-03T11:35:16.231Z,43.21
2022-08-03T11:38:01.944Z,43.44
2022-08-03T11:40:52.494Z,44.67
2022-08-03T11:43:37.699Z,44.94
2022-08-03T11:46:10.216Z,43.30
2022-08-03T11:48:50.571Z,42.64
2022-08-03T11:51:35.482Z,44.09
2022-08-03T11:54:06.827Z,43.33
2022-08-03T11:56:47.776Z,42.96
2022-08-03T11:59:20.451Z,42.37
2022-08-03T12:01:48.944Z,42.72
2022-08-03T12:04:16.370Z,42.71
2022-08-03T12:07:01.195Z,41.86
2022-08-03T12:09:27.863Z,41.72
2022-08-03T12:12:00.390Z,41.29
2022-08-03T12:14:50.424Z,41.56
2022-08-03T12:17:20.702Z,42.37
2022-08-03T12:19:47.531Z,43.32
2022-08-03T12:22:15.830Z,43.22
2022-08-03T12:24:46.611Z,43.31
2022-08-03T12:27:23.190Z,41.50
2022-08-03T12:29:57.267Z,41.80
2022-08-03T12:32:29.926Z,41.53
2022-08-03T12:35:05.883Z,40.91
2022-08-03T12:37:34.868Z,41.15
2022-08-03T12:40:10.527Z,40.99
2022-08-03T12:42:40.816Z,40.56
2022-08-03T12:45:29.092Z,39.47
2022-08-03T12:48:03.477Z,40.11
2022-08-03T12:50:32.532Z,40.00
2022-08-03T12:53:01.608Z,40.85
2022-08-03T12:55:56.597Z,40.05
2022-08-03T12:58:33.808Z,40.74
2022-08-03T13:01:01.602Z,41.15
2022-08-03T13:03:49.832Z,40.83
2022-08-03T13:06:25.536Z,40.92
2022-08-03T13:09:06.374Z,40.13
2022-08-03T13:11:57.294Z,39.78
2022-08-03T13:14:23.800Z,39.81
2022-08-03T13:16:53.734Z,39.02
2022-08-03T13:19:21.510Z,40.04
2022-08-03T13:21:53.739Z,39.88
2022-08-03T13:24:35.122Z,40.32
2022-08-03T13:28:02.335Z,39.65
2022-08-03T13:29:52.947Z,39.93
2022-08-03T13:32:25.245Z,40.26
2022-08-03T13:34:52.062Z,40.36
2022-08-03T13:37:18.785Z,39.39
2022-08-03T13:39:57.545Z,38.57
2022-08-03T13:42:28.053Z,39.12
2022-08-03T13:45:15.072Z,39.55
2022-08-03T13:47:41.793Z,39.72
2022-08-03T13:50:08.997Z,38.77
2022-08-03T13:52:36.463Z,39.89
2022-08-03T13:55:06.463Z,40.15
2022-08-03T13:58:02.295Z,40.27
2022-08-03T14:00:28.121Z,39.73
2022-08-03T14:03:03.002Z,39.04
2022-08-03T14:05:32.249Z,39.42
2022-08-03T14:08:04.580Z,38.86
2022-08-03T14:10:33.538Z,40.11
2022-08-03T14:13:00.518Z,39.30
2022-08-03T14:15:28.585Z,39.17
2022-08-03T14:17:56.329Z,38.33
2022-08-03T14:20:38.034Z,38.31
2022-08-03T14:23:07.275Z,38.83
2022-08-03T14:25:43.440Z,39.29
2022-08-03T14:28:18.794Z,39.00
2022-08-03T14:30:45.737Z,38.29
2022-08-03T14:33:14.527Z,38.01
2022-08-03T14:35:41.508Z,38.72
2022-08-03T14:38:08.262Z,39.09
2022-08-03T14:40:35.077Z,39.55
2022-08-03T14:43:02.575Z,39.02
2022-08-03T14:45:32.258Z,39.92
2022-08-03T14:50:32.674Z,38.99
2022-08-03T14:50:51.723Z,38.81
2022-08-03T14:53:21.624Z,38.04
2022-08-03T14:55:51.253Z,38.97
2022-08-03T14:58:21.204Z,39.74
2022-08-03T15:00:48.953Z,38.32
2022-08-03T15:03:17.031Z,38.69
2022-08-03T15:05:44.345Z,39.63
2022-08-03T15:08:11.424Z,40.12
2022-08-03T15:10:40.571Z,39.86
2022-08-03T15:13:12.062Z,41.37
2022-08-03T15:15:38.897Z,40.80
2022-08-03T15:18:05.989Z,40.61
2022-08-03T15:20:43.882Z,41.21
2022-08-03T15:23:11.895Z,39.81
2022-08-03T15:26:29.356Z,39.17
2022-08-03T15:28:25.338Z,40.09
2022-08-03T15:30:53.859Z,39.08
2022-08-03T15:33:20.748Z,39.06
2022-08-03T15:35:47.820Z,39.25
2022-08-03T15:38:14.846Z,39.83
2022-08-03T15:40:41.849Z,40.15
2022-08-03T15:43:08.653Z,40.67
2022-08-03T15:45:40.628Z,39.89
2022-08-03T15:48:09.252Z,39.16
2022-08-03T15:50:36.337Z,38.95
2022-08-03T15:53:03.406Z,40.08
2022-08-03T15:55:31.073Z,40.23
2022-08-03T15:59:03.876Z,40.75
2022-08-03T16:00:44.886Z,41.12
2022-08-03T16:03:11.540Z,41.06
2022-08-03T16:05:38.237Z,41.27
2022-08-03T16:08:07.932Z,40.94
2022-08-03T16:10:36.978Z,40.34
2022-08-03T16:13:03.636Z,40.26
2022-08-03T16:15:30.273Z,39.20
2022-08-03T16:17:57.043Z,38.74
2022-08-03T16:20:30.979Z,39.30
2022-08-03T16:23:07.732Z,38.02
2022-08-03T16:25:38.320Z,38.66
2022-08-03T16:28:07.631Z,37.67
2022-08-03T16:30:35.209Z,38.02
2022-08-03T16:33:01.963Z,39.37
2022-08-03T16:35:28.648Z,38.42
2022-08-03T16:37:56.390Z,39.50
2022-08-03T16:40:25.083Z,39.25
2022-08-03T16:42:52.008Z,39.41
2022-08-03T16:45:18.713Z,39.10
2022-08-03T16:47:45.390Z,39.66
2022-08-03T16:50:19.074Z,39.91
2022-08-03T16:52:48.315Z,40.28
2022-08-03T16:55:42.893Z,40.41
2022-08-03T16:58:03.241Z,40.09
2022-08-03T17:00:34.363Z,40.91
2022-08-03T17:03:18.742Z,41.91
2022-08-03T17:05:47.745Z,41.31
2022-08-03T17:08:15.793Z,41.55
2022-08-03T17:10:45.633Z,39.76
2022-08-03T17:13:21.503Z,39.96
2022-08-03T17:16:00.886Z,41.83
2022-08-03T17:18:34.934Z,41.55
2022-08-03T17:21:06.040Z,41.19
2022-08-03T17:23:49.642Z,41.39
2022-08-03T17:26:21.850Z,41.91
2022-08-03T17:28:56.489Z,42.63
2022-08-03T17:31:31.172Z,42.13
2022-08-03T17:34:01.580Z,42.52
2022-08-03T17:36:54.001Z,42.38
2022-08-03T17:39:23.549Z,42.43
2022-08-03T17:42:29.195Z,43.40
2022-08-03T17:44:54.686Z,43.55
2022-08-03T17:47:23.041Z,43.48
2022-08-03T17:49:56.877Z,43.62
2022-08-03T17:52:41.918Z,44.27
2022-08-03T17:55:57.602Z,44.58
2022-08-03T17:58:16.691Z,44.04
2022-08-03T18:01:04.986Z,43.55
2022-08-03T18:04:02.729Z,43.95
2022-08-03T18:06:55.843Z,43.94
2022-08-03T18:10:03.252Z,44.16
2022-08-03T18:12:23.512Z,44.27
2022-08-03T18:17:55.948Z,44.00
2022-08-03T18:20:31.205Z,43.90
2022-08-03T18:25:54.900Z,45.07
2022-08-03T18:28:28.856Z,45.19
2022-08-03T18:30:57.828Z,45.65
2022-08-03T18:34:16.411Z,45.43
2022-08-03T18:36:21.755Z,45.63
2022-08-03T18:38:57.343Z,46.04
2022-08-03T18:41:32.138Z,46.73
2022-08-03T18:44:06.801Z,46.71
2022-08-03T18:47:07.029Z,47.79
2022-08-03T18:50:07.215Z,48.31
2022-08-03T18:52:46.023Z,49.11
2022-08-03T18:55:33.495Z,48.79
2022-08-03T18:58:17.616Z,49.13
2022-08-03T19:01:59.803Z,48.65
2022-08-03T19:04:25.413Z,48.39
2022-08-03T19:07:01.575Z,48.09
2022-08-03T19:09:37.520Z,48.24
2022-08-03T19:12:26.564Z,47.91
2022-08-03T19:15:03.852Z,48.08
2022-08-03T19:17:36.002Z,48.54
2022-08-03T19:20:08.989Z,48.92
2022-08-03T19:22:40.105Z,49.14
2022-08-03T19:25:12.698Z,48.96
2022-08-03T19:27:39.917Z,49.19
2022-08-03T19:30:21.806Z,49.34
2022-08-03T19:32:54.374Z,48.93
2022-08-03T19:38:10.274Z,49.17
2022-08-03T19:40:45.625Z,49.36
2022-08-03T19:43:22.358Z,49.65
2022-08-03T19:46:05.370Z,49.92
2022-08-03T19:48:35.313Z,50.04
2022-08-03T19:51:04.516Z,50.16
2022-08-03T19:53:45.185Z,50.43
2022-08-03T19:56:14.304Z,50.68
2022-08-03T19:58:43.083Z,51.08
2022-08-03T20:01:21.251Z,51.43
2022-08-03T20:03:49.271Z,51.80
2022-08-03T20:06:25.127Z,52.26
2022-08-03T20:08:53.694Z,52.85
2022-08-03T20:11:21.059Z,52.92
2022-08-03T20:13:57.635Z,53.18
2022-08-03T20:16:25.486Z,53.03
2022-08-03T20:18:52.421Z,53.53
2022-08-03T20:21:23.286Z,53.58
2022-08-03T20:24:01.560Z,54.04
2022-08-03T20:26:31.163Z,54.41
2022-08-03T20:29:09.045Z,54.15
2022-08-03T20:31:36.413Z,54.73
2022-08-03T20:34:03.973Z,55.13
2022-08-03T20:36:30.676Z,55.50
2022-08-03T20:38:57.993Z,55.79
2022-08-03T20:41:25.105Z,55.53
2022-08-03T20:43:51.811Z,55.98
2022-08-03T20:46:29.202Z,55.66
2022-08-03T20:49:01.314Z,55.89
2022-08-03T20:51:49.073Z,56.22
2022-08-03T20:54:28.581Z,55.88
2022-08-03T20:56:59.004Z,55.61
2022-08-03T20:59:36.609Z,55.43
2022-08-03T21:02:19.604Z,56.10
2022-08-03T21:04:56.177Z,56.13
2022-08-03T21:07:24.798Z,56.17
2022-08-03T21:10:15.455Z,56.57
2022-08-03T21:12:53.680Z,56.75
2022-08-03T21:12:57.898Z,44.55
2022-08-03T21:13:04.040Z,44.57
2022-08-03T21:13:09.604Z,49.07
2022-08-03T21:16:06.823Z,56.70
2022-08-03T21:18:15.851Z,56.87
2022-08-03T21:20:46.042Z,57.22
2022-08-03T21:23:40.095Z,57.38
2022-08-03T21:26:01.066Z,57.30
2022-08-03T21:28:28.122Z,57.55
2022-08-03T21:30:54.882Z,57.43
2022-08-03T21:33:26.591Z,57.31
2022-08-03T21:35:53.888Z,57.04
2022-08-03T21:38:20.869Z,57.00
2022-08-03T21:40:57.013Z,56.81
2022-08-03T21:43:23.618Z,56.94
2022-08-03T21:46:03.946Z,56.90
2022-08-03T21:48:39.062Z,57.00
2022-08-03T21:51:07.047Z,56.44
2022-08-03T21:54:03.020Z,56.68
2022-08-03T21:56:21.970Z,56.86
2022-08-03T21:58:56.944Z,56.68
2022-08-03T22:01:28.537Z,56.68
2022-08-03T22:04:07.606Z,56.61
2022-08-03T22:06:42.404Z,56.50
2022-08-03T22:09:09.361Z,56.39
2022-08-03T22:11:37.788Z,56.52
2022-08-03T22:14:05.226Z,56.84
2022-08-03T22:16:32.057Z,56.86
2022-08-03T22:18:58.739Z,57.06
2022-08-03T22:21:36.158Z,57.08
2022-08-03T22:24:05.600Z,57.05
2022-08-03T22:26:35.468Z,57.25
2022-08-03T22:29:07.941Z,56.99
2022-08-03T22:31:57.979Z,57.29
2022-08-03T22:34:26.795Z,57.42
2022-08-03T22:37:01.414Z,57.48
2022-08-03T22:39:29.864Z,57.55
2022-08-03T22:41:59.005Z,57.95
2022-08-03T22:44:36.686Z,58.20
2022-08-03T22:47:04.527Z,58.04
2022-08-03T22:49:32.261Z,58.13
2022-08-03T22:51:59.470Z,58.21
2022-08-03T22:54:26.095Z,57.91
2022-08-03T22:56:52.703Z,58.08
2022-08-03T22:59:40.195Z,58.30
2022-08-03T23:02:15.179Z,57.84
2022-08-03T23:04:55.044Z,57.96
2022-08-03T23:07:29.376Z,58.35
2022-08-03T23:09:56.919Z,58.47
2022-08-03T23:12:24.254Z,58.29
2022-08-03T23:15:01.763Z,58.45
2022-08-03T23:17:31.019Z,58.77
2022-08-03T23:20:06.941Z,58.58
2022-08-03T23:22:35.379Z,58.58
2022-08-03T23:25:04.790Z,58.69
2022-08-03T23:27:32.739Z,58.97
2022-08-03T23:30:01.203Z,59.20
2022-08-03T23:32:30.945Z,58.95
2022-08-03T23:35:21.572Z,59.67
2022-08-03T23:38:04.372Z,59.88
2022-08-03T23:40:37.958Z,59.85
2022-08-03T23:43:05.599Z,60.36
2022-08-03T23:45:36.235Z,61.05
2022-08-03T23:48:02.866Z,60.94
2022-08-03T23:50:44.912Z,61.31
2022-08-03T23:53:30.154Z,61.74
2022-08-03T23:56:24.517Z,62.27
2022-08-03T23:59:10.889Z,62.79
